Time;durP1;ratioP1;P1;durP2;ratioP2;P2;SDS_P1;SDS_P2;PMS_P1;PMS_P2;Temp;Humidity;BMP_temperature;BMP_pressure;BME280_temperature;BME280_humidity;BME280_pressure;Samples;Min_cycle;Max_cycle;Signal;HPM_P1;HPM_P2
2023/08/18 00:02:20;;;;;;;;;;;;;;;15.92;100.00;101998.91;5001631;28;19929;-80
2023/08/18 00:05:06;;;;;;;;;;;;;;;15.93;100.00;102004.19;4994298;28;19925;-80
2023/08/18 00:07:52;;;;;;;;;;;;;;;15.92;100.00;101998.91;4997190;28;21816;-80
2023/08/18 00:10:37;;;;;;;;;;;;;;;15.89;100.00;101995.44;5006332;28;20462;-80
2023/08/18 00:13:23;;;;;;;;;;;;;;;15.87;100.00;101994.63;4999530;28;20343;-81
2023/08/18 00:16:08;;;;;;;;;;;;;;;15.86;100.00;101990.22;5001810;28;20359;-82
2023/08/18 00:18:54;;;;;;;;;;;;;;;15.79;100.00;101999.50;5002610;28;20016;-80
2023/08/18 00:21:43;;;;;;;;;;;;;;;15.75;100.00;101995.25;5003299;28;19974;-80
2023/08/18 00:24:28;;;;;;;;;;;;;;;15.71;100.00;101991.00;4989388;28;19921;-80
2023/08/18 00:27:16;;;;;;;;;;;;;;;15.66;100.00;101987.69;5000501;28;19921;-80
2023/08/18 00:30:03;;;;;;;;;;;;;;;15.63;100.00;101994.03;4997334;28;19936;-80
2023/08/18 00:32:49;;;;;;;;;;;;;;;15.61;100.00;101991.47;4994363;28;19932;-79
2023/08/18 00:35:34;;;;;;;;;;;;;;;15.61;100.00;101998.59;4996384;28;19921;-80
2023/08/18 00:38:20;;;;;;;;;;;;;;;15.59;100.00;102003.16;4999409;28;20249;-80
2023/08/18 00:41:06;;;;;;;;;;;;;;;15.57;100.00;101994.31;4995786;28;21794;-79
2023/08/18 00:43:51;;;;;;;;;;;;;;;15.57;100.00;101995.22;4996055;28;19933;-79
2023/08/18 00:46:37;;;;;;;;;;;;;;;15.53;100.00;101998.94;4994988;28;20012;-79
2023/08/18 00:49:23;;;;;;;;;;;;;;;15.52;100.00;101997.22;4994362;28;19956;-79
2023/08/18 00:52:12;;;;;;;;;;;;;;;15.51;100.00;102000.00;4992881;28;20379;-80
2023/08/18 00:54:57;;;;;;;;;;;;;;;15.48;100.00;102001.00;4978175;28;20443;-81
2023/08/18 00:57:43;;;;;;;;;;;;;;;15.47;100.00;102004.59;4996910;28;19929;-82
2023/08/18 01:00:29;;;;;;;;;;;;;;;15.45;100.00;101993.13;4987871;28;19960;-81
2023/08/18 01:03:15;;;;;;;;;;;;;;;15.45;100.00;101995.78;4987665;28;20482;-80
2023/08/18 01:06:00;;;;;;;;;;;;;;;15.45;100.00;101990.44;5014883;28;19929;-80
2023/08/18 01:08:46;;;;;;;;;;;;;;;15.47;100.00;101985.91;5012997;28;19925;-79
2023/08/18 01:11:37;;;;;;;;;;;;;;;15.48;100.00;101990.31;5016162;28;20372;-80
2023/08/18 01:14:27;;;;;;;;;;;;;;;15.51;100.00;101994.66;5000768;28;19929;-79
2023/08/18 01:17:16;;;;;;;;;;;;;;;15.51;100.00;101983.97;5012993;28;21839;-80
2023/08/18 01:20:03;;;;;;;;;;;;;;;15.52;100.00;101981.22;5001999;28;19925;-80
2023/08/18 01:22:56;;;;;;;;;;;;;;;15.53;100.00;101969.59;4990682;28;19925;-81
2023/08/18 01:25:41;;;;;;;;;;;;;;;15.56;100.00;101973.91;5027477;28;20459;-79
2023/08/18 01:28:27;;;;;;;;;;;;;;;15.56;100.00;101972.13;5013277;28;20291;-79
2023/08/18 01:31:14;;;;;;;;;;;;;;;15.57;100.00;101967.63;5014478;28;19990;-80
2023/08/18 01:34:00;;;;;;;;;;;;;;;15.58;100.00;101945.38;4996408;28;19931;-81
2023/08/18 01:36:46;;;;;;;;;;;;;;;15.58;100.00;101948.88;4999605;28;19925;-81
2023/08/18 01:39:32;;;;;;;;;;;;;;;15.61;100.00;101950.53;4999027;28;19928;-80
2023/08/18 01:42:17;;;;;;;;;;;;;;;15.61;100.00;101945.22;4998221;28;21546;-80
2023/08/18 01:45:03;;;;;;;;;;;;;;;15.61;100.00;101943.41;4998586;28;19928;-80
2023/08/18 01:47:49;;;;;;;;;;;;;;;15.60;100.00;101938.16;4983496;28;21006;-81
2023/08/18 01:50:34;;;;;;;;;;;;;;;15.56;100.00;101932.09;5014019;28;20502;-81
2023/08/18 01:53:20;;;;;;;;;;;;;;;15.55;100.00;101935.72;5013462;28;20377;-81
2023/08/18 01:56:12;;;;;;;;;;;;;;;15.55;100.00;101927.69;4997554;28;19987;-81
2023/08/18 01:58:59;;;;;;;;;;;;;;;15.55;100.00;101933.03;4998412;28;19924;-82
2023/08/18 02:01:44;;;;;;;;;;;;;;;15.57;100.00;101932.94;5013621;28;19927;-81
2023/08/18 02:04:30;;;;;;;;;;;;;;;15.59;100.00;101925.75;5011820;28;20368;-81
2023/08/18 02:07:16;;;;;;;;;;;;;;;15.60;100.00;101930.13;4992122;28;19924;-82
2023/08/18 02:10:01;;;;;;;;;;;;;;;15.60;100.00;101922.97;5014310;28;19939;-82
2023/08/18 02:12:47;;;;;;;;;;;;;;;15.61;100.00;101927.41;4999657;28;19925;-82
2023/08/18 02:15:33;;;;;;;;;;;;;;;15.64;100.00;101925.50;5017250;28;20399;-81
2023/08/18 02:18:18;;;;;;;;;;;;;;;15.65;100.00;101919.22;5003922;28;19973;-81
2023/08/18 02:21:04;;;;;;;;;;;;;;;15.65;100.00;101912.09;5018073;28;19925;-81
2023/08/18 02:23:49;;;;;;;;;;;;;;;15.66;100.00;101904.94;5018550;28;20479;-82
2023/08/18 02:26:35;;;;;;;;;;;;;;;15.64;100.00;101902.38;4999106;28;19943;-82
2023/08/18 02:29:21;;;;;;;;;;;;;;;15.64;100.00;101899.69;5013209;28;19985;-81
2023/08/18 02:32:07;;;;;;;;;;;;;;;15.64;100.00;101898.81;4982456;28;19924;-82
2023/08/18 02:34:52;;;;;;;;;;;;;;;15.61;100.00;101892.72;5013130;28;19924;-82
2023/08/18 02:37:38;;;;;;;;;;;;;;;15.63;100.00;101891.75;5015048;28;20664;-82
2023/08/18 02:40:23;;;;;;;;;;;;;;;15.62;100.00;101890.88;5012847;28;19925;-83
2023/08/18 02:43:12;;;;;;;;;;;;;;;15.61;100.00;101894.50;5011922;28;19932;-83
2023/08/18 02:45:58;;;;;;;;;;;;;;;15.58;100.00;101898.19;4995887;28;19929;-82
2023/08/18 02:48:44;;;;;;;;;;;;;;;15.56;100.00;101891.19;4996152;28;19956;-82
2023/08/18 02:51:29;;;;;;;;;;;;;;;15.55;100.00;101890.34;4998661;28;19929;-81
2023/08/18 02:54:15;;;;;;;;;;;;;;;15.56;100.00;101893.84;5011194;28;20023;-80
2023/08/18 02:57:00;;;;;;;;;;;;;;;15.53;100.00;101889.53;4998736;28;19955;-80
2023/08/18 02:59:46;;;;;;;;;;;;;;;15.51;100.00;101891.44;4969930;28;19932;-80
2023/08/18 03:02:32;;;;;;;;;;;;;;;15.48;100.00;101897.78;4986239;28;19929;-80
2023/08/18 03:05:17;;;;;;;;;;;;;;;15.45;100.00;101897.06;4973522;28;20399;-80
2023/08/18 03:08:03;;;;;;;;;;;;;;;15.44;100.00;101892.66;4971386;28;20328;-81
2023/08/18 03:10:56;;;;;;;;;;;;;;;15.44;100.00;101898.00;4971214;28;19921;-80
2023/08/18 03:13:41;;;;;;;;;;;;;;;15.44;100.00;101898.00;4986475;28;19972;-80
2023/08/18 03:16:27;;;;;;;;;;;;;;;15.43;100.00;101888.28;4986042;28;20052;-80
2023/08/18 03:19:13;;;;;;;;;;;;;;;15.42;100.00;101887.41;4988517;28;20039;-80
2023/08/18 03:21:59;;;;;;;;;;;;;;;15.44;100.00;101892.66;4987682;28;20308;-81
2023/08/18 03:24:44;;;;;;;;;;;;;;;15.43;100.00;101896.28;4985054;28;19928;-81
2023/08/18 03:27:30;;;;;;;;;;;;;;;15.43;100.00;101890.94;4971789;28;19925;-81
2023/08/18 03:30:16;;;;;;;;;;;;;;;15.41;100.00;101888.34;4973645;28;20456;-82
2023/08/18 03:33:03;;;;;;;;;;;;;;;15.39;100.00;101878.69;4990605;28;20159;-81
2023/08/18 03:35:49;;;;;;;;;;;;;;;15.39;100.00;101881.34;4993196;28;19972;-80
2023/08/18 03:38:34;;;;;;;;;;;;;;;15.39;100.00;101874.22;4989123;28;19972;-81
2023/08/18 03:41:20;;;;;;;;;;;;;;;15.39;100.00;101884.03;4987112;28;19925;-80
2023/08/18 03:44:06;;;;;;;;;;;;;;;15.42;100.00;101883.88;4988762;28;19926;-81
2023/08/18 03:46:51;;;;;;;;;;;;;;;15.40;100.00;101888.41;4970950;28;19969;-81
2023/08/18 03:49:37;;;;;;;;;;;;;;;15.41;100.00;101890.16;4985830;28;19925;-81
2023/08/18 03:52:23;;;;;;;;;;;;;;;15.42;100.00;101894.56;4987355;28;19929;-81
2023/08/18 03:55:11;;;;;;;;;;;;;;;15.42;100.00;101892.75;4989124;28;19926;-80
2023/08/18 03:57:57;;;;;;;;;;;;;;;15.44;100.00;101892.66;4996247;28;20315;-81
2023/08/18 04:00:43;;;;;;;;;;;;;;;15.47;100.00;101892.50;4995987;28;19925;-81
2023/08/18 04:03:28;;;;;;;;;;;;;;;15.47;100.00;101900.50;5012120;28;20334;-81
2023/08/18 04:06:14;;;;;;;;;;;;;;;15.47;100.00;101903.19;4996926;28;20109;-81
2023/08/18 04:09:06;;;;;;;;;;;;;;;15.46;100.00;101912.13;4982061;28;20442;-81
2023/08/18 04:11:51;;;;;;;;;;;;;;;15.45;100.00;101911.28;4994682;28;20339;-81
2023/08/18 04:14:37;;;;;;;;;;;;;;;15.47;100.00;101911.19;5001408;28;19929;-81
2023/08/18 04:17:23;;;;;;;;;;;;;;;15.48;100.00;101897.78;5001565;28;19921;-81
2023/08/18 04:20:09;;;;;;;;;;;;;;;15.49;100.00;101895.97;5017621;28;19928;-81
2023/08/18 04:22:54;;;;;;;;;;;;;;;15.51;100.00;101893.25;5014145;28;20074;-81
2023/08/18 04:25:43;;;;;;;;;;;;;;;15.51;100.00;101883.41;5001414;28;19983;-82
2023/08/18 04:28:29;;;;;;;;;;;;;;;15.52;100.00;101889.63;4996195;28;19921;-81
2023/08/18 04:31:15;;;;;;;;;;;;;;;15.54;100.00;101888.63;4997071;28;19928;-81
2023/08/18 04:34:01;;;;;;;;;;;;;;;15.55;100.00;101886.78;4984932;28;22087;-81
2023/08/18 04:36:46;;;;;;;;;;;;;;;15.58;100.00;101889.31;5000559;28;19929;-82
2023/08/18 04:39:32;;;;;;;;;;;;;;;15.57;100.00;101888.44;5015635;28;20302;-81
2023/08/18 04:42:18;;;;;;;;;;;;;;;15.58;100.00;101884.84;5011817;28;21890;-81
2023/08/18 04:45:04;;;;;;;;;;;;;;;15.60;100.00;101893.63;5016215;28;19924;-81
2023/08/18 04:47:49;;;;;;;;;;;;;;;15.61;100.00;101889.16;5016626;28;20310;-81
2023/08/18 04:50:35;;;;;;;;;;;;;;;15.60;100.00;101885.63;5000774;28;19925;-81
2023/08/18 04:53:21;;;;;;;;;;;;;;;15.61;100.00;101882.03;4987724;28;19925;-81
2023/08/18 04:56:08;;;;;;;;;;;;;;;15.60;100.00;101884.78;5000066;28;20430;-81
2023/08/18 04:58:54;;;;;;;;;;;;;;;15.60;100.00;101876.75;5000168;28;19921;-81
2023/08/18 05:01:39;;;;;;;;;;;;;;;15.61;100.00;101881.16;4998352;28;19932;-81
2023/08/18 05:04:25;;;;;;;;;;;;;;;15.60;100.00;101874.94;5014540;28;20934;-81
2023/08/18 05:07:11;;;;;;;;;;;;;;;15.61;100.00;101873.16;5015138;28;21968;-80
2023/08/18 05:09:57;;;;;;;;;;;;;;;15.59;100.00;101870.53;5013921;28;19917;-81
2023/08/18 05:12:42;;;;;;;;;;;;;;;15.60;100.00;101872.25;5016419;28;19929;-81
2023/08/18 05:15:31;;;;;;;;;;;;;;;15.58;100.00;101863.50;5015809;28;19925;-81
2023/08/18 05:18:17;;;;;;;;;;;;;;;15.56;100.00;101860.03;5017019;28;19953;-81
2023/08/18 05:21:02;;;;;;;;;;;;;;;15.55;100.00;101855.66;5004358;28;19960;-81
2023/08/18 05:23:48;;;;;;;;;;;;;;;15.55;100.00;101858.31;5019534;28;20014;-81
2023/08/18 05:26:34;;;;;;;;;;;;;;;15.54;100.00;101861.06;5002362;28;19936;-82
2023/08/18 05:29:19;;;;;;;;;;;;;;;15.53;100.00;101854.84;5012119;28;19951;-80
2023/08/18 05:32:05;;;;;;;;;;;;;;;15.55;100.00;101862.78;5016176;28;19987;-81
2023/08/18 05:34:57;;;;;;;;;;;;;;;15.55;100.00;101855.66;5012697;28;19937;-80
2023/08/18 05:37:42;;;;;;;;;;;;;;;15.56;100.00;101851.16;5000300;28;19931;-80
2023/08/18 05:40:28;;;;;;;;;;;;;;;15.58;100.00;101852.81;5016217;28;19968;-81
2023/08/18 05:43:14;;;;;;;;;;;;;;;15.59;100.00;101854.53;5013672;28;19925;-81
2023/08/18 05:45:59;;;;;;;;;;;;;;;15.59;100.00;101848.34;5015907;28;19925;-81
2023/08/18 05:48:45;;;;;;;;;;;;;;;15.59;100.00;101849.19;5014299;28;20009;-80
2023/08/18 05:51:31;;;;;;;;;;;;;;;15.61;100.00;101846.47;4999808;28;20614;-80
2023/08/18 05:54:16;;;;;;;;;;;;;;;15.64;100.00;101840.97;5018105;28;20415;-80
2023/08/18 05:57:02;;;;;;;;;;;;;;;15.65;100.00;101842.69;5018993;28;20644;-81
2023/08/18 05:59:48;;;;;;;;;;;;;;;15.69;100.00;101848.75;5003567;28;19924;-79
2023/08/18 06:02:33;;;;;;;;;;;;;;;15.69;100.00;101846.06;5017875;28;19952;-81
2023/08/18 06:05:19;;;;;;;;;;;;;;;15.71;100.00;101838.84;5018649;28;20018;-81
2023/08/18 06:08:05;;;;;;;;;;;;;;;15.71;100.00;101844.19;4996500;28;19924;-80
2023/08/18 06:10:51;;;;;;;;;;;;;;;15.73;100.00;101845.84;5013846;28;20963;-78
2023/08/18 06:13:37;;;;;;;;;;;;;;;15.77;100.00;101851.00;4999750;28;19929;-78
2023/08/18 06:16:22;;;;;;;;;;;;;;;15.79;100.00;101855.31;5012632;28;19928;-80
2023/08/18 06:19:08;;;;;;;;;;;;;;;15.82;100.00;101844.50;4995270;28;19947;-83
2023/08/18 06:21:57;;;;;;;;;;;;;;;15.83;100.00;101856.03;5007113;28;20020;-79
2023/08/18 06:24:43;;;;;;;;;;;;;;;15.83;100.00;101851.56;4996849;28;20089;-83
2023/08/18 06:27:28;;;;;;;;;;;;;;;15.87;100.00;101860.28;5004455;28;20002;-82
2023/08/18 06:30:14;;;;;;;;;;;;;;;15.92;100.00;101855.59;5015907;28;19928;-82
2023/08/18 06:33:00;;;;;;;;;;;;;;;15.97;100.00;101858.88;5017185;28;19929;-84
2023/08/18 06:35:47;;;;;;;;;;;;;;;16.01;100.00;101862.25;5017245;28;19925;-84
2023/08/18 06:38:33;;;;;;;;;;;;;;;16.01;100.00;101860.44;5011879;28;21927;-83
2023/08/18 06:41:18;;;;;;;;;;;;;;;16.04;100.00;101859.44;4990304;28;19925;-79
2023/08/18 06:44:04;;;;;;;;;;;;;;;16.06;100.00;101857.53;5016066;28;19925;-82
2023/08/18 06:46:50;;;;;;;;;;;;;;;16.10;100.00;101853.75;4999824;28;20640;-82
2023/08/18 06:49:38;;;;;;;;;;;;;;;16.13;100.00;101853.59;4987788;28;20376;-83
2023/08/18 06:52:24;;;;;;;;;;;;;;;16.17;100.00;101859.63;4999965;28;19929;-82
2023/08/18 06:55:13;;;;;;;;;;;;;;;16.22;100.00;101854.91;4984358;28;19940;-82
2023/08/18 06:57:59;;;;;;;;;;;;;;;16.27;100.00;101860.00;5015900;28;20410;-82
2023/08/18 07:00:45;;;;;;;;;;;;;;;16.28;100.00;101861.72;5015405;28;20360;-82
2023/08/18 07:03:30;;;;;;;;;;;;;;;16.29;100.00;101860.81;5001318;28;19936;-82
2023/08/18 07:06:16;;;;;;;;;;;;;;;16.33;100.00;101865.03;5015874;28;19924;-82
2023/08/18 07:09:03;;;;;;;;;;;;;;;16.36;100.00;101864.88;5001656;28;20003;-82
2023/08/18 07:11:49;;;;;;;;;;;;;;;16.40;100.00;101858.41;5016527;28;20015;-82
2023/08/18 07:14:35;;;;;;;;;;;;;;;16.44;100.00;101856.41;5016882;28;20331;-82
2023/08/18 07:17:20;;;;;;;;;;;;;;;16.49;100.00;101850.81;5018185;28;19967;-82
2023/08/18 07:20:10;;;;;;;;;;;;;;;16.54;100.00;101846.97;5018056;28;19920;-84
2023/08/18 07:22:56;;;;;;;;;;;;;;;16.57;100.00;101848.63;5002296;28;19925;-83
2023/08/18 07:25:42;;;;;;;;;;;;;;;16.57;100.00;101845.94;5003266;28;19937;-82
2023/08/18 07:28:27;;;;;;;;;;;;;;;16.61;100.00;101842.13;5012831;28;19924;-82
2023/08/18 07:31:13;;;;;;;;;;;;;;;16.67;100.00;101844.47;5016939;28;19929;-83
2023/08/18 07:33:59;;;;;;;;;;;;;;;16.72;100.00;101838.84;5016044;28;19925;-82
2023/08/18 07:36:44;;;;;;;;;;;;;;;16.72;100.00;101833.50;5000741;28;19975;-82
2023/08/18 07:39:30;;;;;;;;;;;;;;;16.74;100.00;101830.75;5015017;28;19933;-82
2023/08/18 07:42:15;;;;;;;;;;;;;;;16.82;100.00;101824.03;5016206;28;19924;-82
2023/08/18 07:45:02;;;;;;;;;;;;;;;16.90;100.00;101815.59;5016452;28;20311;-83
2023/08/18 07:47:48;;;;;;;;;;;;;;;16.95;100.00;101818.84;5001399;28;20272;-80
2023/08/18 07:50:34;;;;;;;;;;;;;;;16.95;100.00;101812.66;5018304;28;19929;-83
2023/08/18 07:53:19;;;;;;;;;;;;;;;16.96;100.00;101815.22;4988338;28;20086;-81
2023/08/18 07:56:05;;;;;;;;;;;;;;;16.95;100.00;101818.84;5002619;28;19924;-82
2023/08/18 07:58:51;;;;;;;;;;;;;;;16.95;100.00;101812.66;5014557;28;20580;-81
2023/08/18 08:01:37;;;;;;;;;;;;;;;16.97;100.00;101811.63;5016852;28;19960;-81
2023/08/18 08:04:22;;;;;;;;;;;;;;;17.03;100.00;101817.56;5016209;28;19928;-79
2023/08/18 08:07:08;;;;;;;;;;;;;;;17.07;100.00;101817.31;5016985;28;20017;-82
2023/08/18 08:09:56;;;;;;;;;;;;;;;17.10;100.00;101822.50;5005595;28;19917;-84
2023/08/18 08:12:45;;;;;;;;;;;;;;;17.12;100.00;101833.09;5020914;28;19964;-84
2023/08/18 08:15:31;;;;;;;;;;;;;;;17.06;100.00;101828.94;5020963;28;21019;-83
2023/08/18 08:18:18;;;;;;;;;;;;;;;17.02;100.00;101818.53;5006058;28;19925;-83
2023/08/18 08:21:03;;;;;;;;;;;;;;;17.03;100.00;101820.25;5019700;28;19921;-81
2023/08/18 08:23:49;;;;;;;;;;;;;;;17.09;100.00;101823.44;5020099;28;20343;-81
2023/08/18 08:26:35;;;;;;;;;;;;;;;17.12;100.00;101829.56;5021210;28;20995;-82
2023/08/18 08:29:20;;;;;;;;;;;;;;;17.15;100.00;101824.03;5006063;28;19930;-83
2023/08/18 08:32:06;;;;;;;;;;;;;;;17.17;100.00;101822.97;5020822;28;20007;-83
2023/08/18 08:34:52;;;;;;;;;;;;;;;17.21;100.00;101819.19;5021147;28;20719;-81
2023/08/18 08:37:37;;;;;;;;;;;;;;;17.27;100.00;101828.66;5008720;28;20402;-81
2023/08/18 08:40:23;;;;;;;;;;;;;;;17.33;100.00;101838.16;5021211;28;19929;-81
2023/08/18 08:43:12;;;;;;;;;;;;;;;17.38;100.00;101836.94;5005742;28;19929;-81
2023/08/18 08:45:57;;;;;;;;;;;;;;;17.42;100.00;101837.63;5020852;28;19983;-81
2023/08/18 08:48:45;;;;;;;;;;;;;;;17.46;100.00;101847.19;5006004;28;20294;-80
2023/08/18 08:51:31;;;;;;;;;;;;;;;17.53;100.00;101845.00;5007042;28;19920;-82
2023/08/18 08:54:21;;;;;;;;;;;;;;;17.58;100.00;101840.25;5004729;28;19957;-82
2023/08/18 08:57:07;;;;;;;;;;;;;;;17.68;100.00;101843.25;5006345;28;19938;-82
2023/08/18 08:59:52;;;;;;;;;;;;;;;17.76;100.00;101840.13;5004717;28;20332;-82
2023/08/18 09:02:42;;;;;;;;;;;;;;;17.82;100.00;101833.50;5020286;28;20031;-83
2023/08/18 09:05:29;;;;;;;;;;;;;;;17.90;100.00;101826.75;5021559;28;20783;-82
2023/08/18 09:08:17;;;;;;;;;;;;;;;17.98;100.00;101826.25;5003665;28;20005;-80
2023/08/18 09:11:08;;;;;;;;;;;;;;;18.04;100.00;101827.72;5004635;28;19931;-81
2023/08/18 09:13:53;;;;;;;;;;;;;;;18.09;100.00;101819.41;5005382;28;19948;-83
2023/08/18 09:16:39;;;;;;;;;;;;;;;18.15;100.00;101827.06;5020549;28;20078;-82
2023/08/18 09:19:25;;;;;;;;;;;;;;;18.19;100.00;101823.22;5020276;28;19925;-82
2023/08/18 09:22:11;;;;;;;;;;;;;;;18.16;100.00;101831.47;5005111;28;19943;-81
2023/08/18 09:24:56;;;;;;;;;;;;;;;18.11;100.00;101833.56;5005922;28;20023;-81
2023/08/18 09:27:43;;;;;;;;;;;;;;;18.04;100.00;101827.72;5020289;28;19932;-82
2023/08/18 09:30:29;;;;;;;;;;;;;;;18.08;100.00;101815.00;5005087;28;20488;-82
2023/08/18 09:33:14;;;;;;;;;;;;;;;18.15;100.00;101808.31;5004763;28;19932;-79
2023/08/18 09:36:00;;;;;;;;;;;;;;;18.26;100.00;101810.31;5020120;28;21766;-78
2023/08/18 09:38:46;;;;;;;;;;;;;;;18.43;100.00;101798.53;5018487;28;20004;-79
2023/08/18 09:41:31;;;;;;;;;;;;;;;18.56;100.00;101799.47;5019765;28;20368;-81
2023/08/18 09:44:17;;;;;;;;;;;;;;;18.69;100.00;101799.50;5004458;28;19928;-80
2023/08/18 09:47:04;;;;;;;;;;;;;;;18.82;100.00;101783.50;5019233;28;20020;-81
2023/08/18 09:49:50;;;;;;;;;;;;;;;18.89;100.00;101788.47;5018720;28;20023;-82
2023/08/18 09:52:37;;;;;;;;;;;;;;;18.97;100.00;101788.81;5002509;28;20009;-82
2023/08/18 09:55:29;;;;;;;;;;;;;;;19.09;100.00;101792.53;5018922;28;19964;-78
2023/08/18 09:58:20;;;;;;;;;;;;;;;19.17;100.00;101783.97;5003412;28;19932;-81
2023/08/18 10:01:06;;;;;;;;;;;;;;;19.23;100.00;101789.75;5002470;28;20036;-79
2023/08/18 10:03:53;;;;;;;;;;;;;;;19.27;100.00;101785.94;4990373;28;19928;-81
2023/08/18 10:06:39;;;;;;;;;;;;;;;19.34;100.00;101789.03;5003934;28;19925;-82
2023/08/18 10:09:27;;;;;;;;;;;;;;;19.41;100.00;101787.66;4989508;28;19925;-82
2023/08/18 10:12:13;;;;;;;;;;;;;;;19.52;100.00;101788.75;5004574;28;19944;-80
2023/08/18 10:14:58;;;;;;;;;;;;;;;19.52;100.00;101784.22;5003730;28;19920;-81
2023/08/18 10:17:44;;;;;;;;;;;;;;;19.56;100.00;101776.84;5004692;28;19948;-80
2023/08/18 10:20:30;;;;;;;;;;;;;;;19.63;100.00;101775.44;5003942;28;19928;-81
2023/08/18 10:23:18;;;;;;;;;;;;;;;19.71;100.00;101776.75;5003678;28;19929;-80
2023/08/18 10:26:04;;;;;;;;;;;;;;;19.79;100.00;101769.00;5005425;28;20406;-82
2023/08/18 10:28:51;;;;;;;;;;;;;;;19.86;100.00;101780.16;5013995;28;20192;-81
2023/08/18 10:31:36;;;;;;;;;;;;;;;19.92;100.00;101777.91;5003970;28;19952;-80
2023/08/18 10:34:22;;;;;;;;;;;;;;;19.95;100.00;101776.88;5004789;28;19924;-81
2023/08/18 10:37:08;;;;;;;;;;;;;;;19.98;100.00;101775.81;5003723;28;20431;-81
2023/08/18 10:39:54;;;;;;;;;;;;;;;20.03;100.00;101782.56;5003741;28;20044;-82
2023/08/18 10:42:41;;;;;;;;;;;;;;;20.08;100.00;101787.59;5004309;28;20787;-81
2023/08/18 10:45:28;;;;;;;;;;;;;;;20.10;100.00;101785.66;5002905;28;20532;-81
2023/08/18 10:48:14;;;;;;;;;;;;;;;20.19;100.00;101776.94;5003291;28;19945;-81
2023/08/18 10:51:00;;;;;;;;;;;;;;;20.32;100.00;101773.38;5003029;28;19928;-81
2023/08/18 10:53:45;;;;;;;;;;;;;;;20.43;100.00;101784.19;4983133;28;19917;-82
2023/08/18 10:56:31;;;;;;;;;;;;;;;20.48;100.00;101789.22;4989981;28;20047;-82
2023/08/18 10:59:17;;;;;;;;;;;;;;;20.46;100.00;101777.75;5000076;28;19925;-81
2023/08/18 11:02:03;;;;;;;;;;;;;;;20.47;100.00;101776.75;4982383;28;20315;-81
2023/08/18 11:04:49;;;;;;;;;;;;;;;20.46;100.00;101778.63;4996186;28;19917;-81
2023/08/18 11:07:35;;;;;;;;;;;;;;;20.47;100.00;101776.75;4995681;28;20123;-80
2023/08/18 11:10:22;;;;;;;;;;;;;;;20.50;100.00;101768.47;4997386;28;19926;-81
2023/08/18 11:13:10;;;;;;;;;;;;;;;20.51;100.00;101753.19;4996704;28;19952;-82
2023/08/18 11:15:56;;;;;;;;;;;;;;;20.53;100.00;101762.03;4996809;28;19921;-81
2023/08/18 11:18:41;;;;;;;;;;;;;;;20.52;100.00;101739.63;4998017;28;19964;-81
2023/08/18 11:21:27;;;;;;;;;;;;;;;20.52;100.00;101744.19;4998516;28;20156;-82
2023/08/18 11:24:13;;;;;;;;;;;;;;;20.54;100.00;101740.38;4997074;28;20515;-81
2023/08/18 11:26:59;;;;;;;;;;;;;;;20.57;100.00;101741.97;4996440;28;19924;-83
2023/08/18 11:29:44;;;;;;;;;;;;;;;20.58;100.00;101744.56;4996818;28;20028;-81
2023/08/18 11:32:30;;;;;;;;;;;;;;;20.60;100.00;101741.78;5006292;28;20020;-82
2023/08/18 11:35:16;;;;;;;;;;;;;;;20.60;100.00;101742.59;4997565;28;19927;-82
2023/08/18 11:38:02;;;;;;;;;;;;;;;20.61;100.00;101733.56;4997356;28;19929;-82
2023/08/18 11:40:48;;;;;;;;;;;;;;;20.62;100.00;101731.75;4997561;28;19925;-82
2023/08/18 11:43:34;;;;;;;;;;;;;;;20.65;100.00;101731.53;4995923;28;19925;-82
2023/08/18 11:46:20;;;;;;;;;;;;;;;20.69;100.00;101724.94;4997526;28;19987;-81
2023/08/18 11:49:12;;;;;;;;;;;;;;;20.75;100.00;101723.59;4996642;28;19924;-81
2023/08/18 11:52:05;;;;;;;;;;;;;;;20.85;100.00;101726.50;4996974;28;19925;-83
2023/08/18 11:54:50;;;;;;;;;;;;;;;20.92;100.00;101719.66;4982533;28;19935;-81
2023/08/18 11:57:40;;;;;;;;;;;;;;;20.99;100.00;101712.88;4996724;28;19925;-82
2023/08/18 12:00:35;;;;;;;;;;;;;;;21.10;100.00;101716.56;4996418;28;20423;-81
2023/08/18 12:03:22;;;;;;;;;;;;;;;21.14;100.00;101713.50;4995715;28;19928;-82
2023/08/18 12:06:08;;;;;;;;;;;;;;;21.20;100.00;101717.59;4996163;28;19968;-77
2023/08/18 12:08:53;;;;;;;;;;;;;;;21.23;100.00;101711.06;4996695;28;19929;-81
2023/08/18 12:11:39;;;;;;;;;;;;;;;21.32;100.00;101714.91;4997912;28;20631;-82
2023/08/18 12:14:25;;;;;;;;;;;;;;;21.37;100.00;101707.31;4996765;28;19926;-82
2023/08/18 12:17:10;;;;;;;;;;;;;;;21.43;100.00;101696.94;5006045;28;19944;-82
2023/08/18 12:19:56;;;;;;;;;;;;;;;21.50;100.00;101699.13;4979282;28;21542;-82
2023/08/18 12:22:42;;;;;;;;;;;;;;;21.62;100.00;101700.00;4995742;28;20484;-82
2023/08/18 12:25:27;;;;;;;;;;;;;;;21.69;100.00;101698.56;5006381;28;19930;-82
2023/08/18 12:28:13;;;;;;;;;;;;;;;21.77;100.00;101696.13;4998061;28;20051;-82
2023/08/18 12:31:00;;;;;;;;;;;;;;;21.84;100.00;101688.38;4997123;28;19925;-82
2023/08/18 12:33:45;;;;;;;;;;;;;;;21.86;100.00;101691.84;4996472;28;19975;-82
2023/08/18 12:36:34;;;;;;;;;;;;;;;21.84;100.00;101683.00;4995780;28;19933;-83
2023/08/18 12:39:20;;;;;;;;;;;;;;;21.87;100.00;101676.50;4994689;28;19978;-82
2023/08/18 12:42:05;;;;;;;;;;;;;;;21.87;100.00;101671.13;4995656;28;19929;-82
2023/08/18 12:44:51;;;;;;;;;;;;;;;21.92;100.00;101660.81;5009435;28;19930;-82
2023/08/18 12:47:37;;;;;;;;;;;;;;;22.00;100.00;101669.13;4996258;28;19925;-81
2023/08/18 12:50:23;;;;;;;;;;;;;;;22.14;100.00;101661.75;4996451;28;19921;-82
2023/08/18 12:53:08;;;;;;;;;;;;;;;22.19;100.00;101664.94;4998155;28;20261;-82
2023/08/18 12:55:54;;;;;;;;;;;;;;;22.18;100.00;101660.53;5001538;28;20439;-81
2023/08/18 12:58:40;;;;;;;;;;;;;;;22.18;100.00;101664.06;5000743;28;20295;-81
2023/08/18 13:01:26;;;;;;;;;;;;;;;22.21;100.00;101661.13;5006642;28;19932;-83
2023/08/18 13:04:12;;;;;;;;;;;;;;;22.20;100.00;101663.97;5005522;28;19932;-83
2023/08/18 13:06:58;;;;;;;;;;;;;;;22.10;100.00;101667.41;5006252;28;20417;-82
2023/08/18 13:09:44;;;;;;;;;;;;;;;22.05;100.00;101668.78;5005525;28;21414;-82
2023/08/18 13:12:29;;;;;;;;;;;;;;;22.07;100.00;101673.03;5006387;28;19926;-81
2023/08/18 13:15:17;;;;;;;;;;;;;;;22.14;100.00;101672.53;5006676;28;20304;-80
2023/08/18 13:18:03;;;;;;;;;;;;;;;22.22;100.00;101664.72;5006639;28;19947;-83
2023/08/18 13:20:48;;;;;;;;;;;;;;;22.30;100.00;101656.84;5005490;28;19925;-81
2023/08/18 13:23:34;;;;;;;;;;;;;;;22.36;100.00;101645.53;5005923;28;19929;-82
2023/08/18 13:26:20;;;;;;;;;;;;;;;22.46;100.00;101656.41;5006919;28;20284;-83
2023/08/18 13:29:06;;;;;;;;;;;;;;;22.57;100.00;101660.06;5006574;28;19991;-82
2023/08/18 13:31:55;;;;;;;;;;;;;;;22.64;100.00;101654.03;5005741;28;19972;-82
2023/08/18 13:34:43;;;;;;;;;;;;;;;22.76;100.00;101651.25;5004990;28;19931;-82
2023/08/18 13:37:29;;;;;;;;;;;;;;;22.86;100.00;101649.50;5005784;28;19925;-82
2023/08/18 13:40:15;;;;;;;;;;;;;;;22.98;100.00;101649.44;5005912;28;19999;-83
2023/08/18 13:43:00;;;;;;;;;;;;;;;23.04;100.00;101643.53;5005817;28;20376;-82
2023/08/18 13:45:46;;;;;;;;;;;;;;;23.04;100.00;101643.53;5007261;28;19928;-83
2023/08/18 13:48:34;;;;;;;;;;;;;;;23.13;100.00;101649.94;5006258;28;19931;-84
2023/08/18 13:51:20;;;;;;;;;;;;;;;23.29;100.00;101638.66;5005679;28;20987;-83
2023/08/18 13:54:06;;;;;;;;;;;;;;;23.48;100.00;101645.19;5005243;28;19925;-82
2023/08/18 13:56:52;;;;;;;;;;;;;;;23.60;100.00;101627.91;5005952;28;19925;-83
2023/08/18 13:59:45;;;;;;;;;;;;;;;23.76;100.00;101631.91;5010803;28;19999;-82
2023/08/18 14:02:32;;;;;;;;;;;;;;;23.79;100.00;101632.50;5005027;28;19925;-81
2023/08/18 14:05:18;;;;;;;;;;;;;;;23.84;100.00;101630.25;5018332;28;19936;-83